createdAt,value
2023-02-02T00:01:39.586Z,44.10
2023-02-02T00:04:08.017Z,65.82
2023-02-02T00:06:35.998Z,53.55
2023-02-02T00:09:04.172Z,39.80
2023-02-02T00:11:32.161Z,93.13
2023-02-02T00:14:01.129Z,68.35
2023-02-02T00:16:29.278Z,51.33
2023-02-02T00:19:00.166Z,55.15
2023-02-02T00:21:29.456Z,55.85
2023-02-02T00:23:57.341Z,60.13
2023-02-02T00:26:25.357Z,51.50
2023-02-02T00:28:53.558Z,129.45
2023-02-02T00:31:23.234Z,49.03
2023-02-02T00:33:51.754Z,86.18
2023-02-02T00:36:21.250Z,65.72
2023-02-02T00:38:50.137Z,56.33
2023-02-02T00:41:18.227Z,55.35
2023-02-02T00:44:06.390Z,50.85
2023-02-02T00:46:34.440Z,49.58
2023-02-02T00:49:02.384Z,53.88
2023-02-02T00:51:30.157Z,47.97
2023-02-02T00:53:58.961Z,46.58
2023-02-02T00:56:26.825Z,40.15
2023-02-02T00:58:54.888Z,45.28
2023-02-02T01:01:23.087Z,104.00
2023-02-02T01:03:51.386Z,124.25
2023-02-02T01:06:19.670Z,64.28
2023-02-02T01:08:47.706Z,41.47
2023-02-02T01:11:16.728Z,37.60
2023-02-02T01:13:44.840Z,22.23
2023-02-02T01:16:13.401Z,13.43
2023-02-02T01:18:41.211Z,15.40
2023-02-02T01:21:11.577Z,12.20
2023-02-02T01:23:40.447Z,15.10
2023-02-02T01:26:12.257Z,6.28
2023-02-02T01:28:40.693Z,6.78
2023-02-02T01:31:13.385Z,12.18
2023-02-02T01:33:42.578Z,6.40
2023-02-02T01:36:16.525Z,5.50
2023-02-02T01:38:45.702Z,8.38
2023-02-02T01:41:19.935Z,5.20
2023-02-02T01:43:47.681Z,7.38
2023-02-02T01:46:30.741Z,14.48
2023-02-02T01:49:06.121Z,32.15
2023-02-02T01:51:56.641Z,41.45
2023-02-02T01:54:32.364Z,46.38
2023-02-02T01:57:10.555Z,42.70
2023-02-02T01:59:39.099Z,41.78
2023-02-02T02:02:07.676Z,36.88
2023-02-02T02:04:35.977Z,38.08
2023-02-02T02:07:05.969Z,32.15
2023-02-02T02:09:35.062Z,31.25
2023-02-02T02:12:02.955Z,18.25
2023-02-02T02:14:49.486Z,20.33
2023-02-02T02:17:39.849Z,14.40
2023-02-02T02:20:44.980Z,18.90
2023-02-02T02:23:43.936Z,14.77
2023-02-02T02:26:43.629Z,10.77
2023-02-02T02:30:03.517Z,8.82
2023-02-02T02:32:56.117Z,12.35
2023-02-02T02:35:48.820Z,16.95
2023-02-02T02:38:41.278Z,13.75
2023-02-02T02:41:15.966Z,13.80
2023-02-02T02:46:16.905Z,13.30
2023-02-02T02:48:46.204Z,15.27
2023-02-02T02:51:36.347Z,15.75
2023-02-02T02:54:05.661Z,60.70
2023-02-02T02:59:24.122Z,55.35
2023-02-02T03:02:22.931Z,38.50
2023-02-02T03:05:09.314Z,35.55
2023-02-02T03:08:07.943Z,29.80
2023-02-02T03:10:38.661Z,32.80
2023-02-02T03:13:11.640Z,31.00
2023-02-02T03:15:44.223Z,27.15
2023-02-02T03:18:15.651Z,31.40
2023-02-02T03:20:45.321Z,23.55
2023-02-02T03:23:14.201Z,20.40
2023-02-02T03:25:42.077Z,24.08
2023-02-02T03:28:10.318Z,24.45
2023-02-02T03:30:42.220Z,28.35
2023-02-02T03:33:12.118Z,25.67
2023-02-02T03:35:40.849Z,25.80
2023-02-02T03:38:09.294Z,26.48
2023-02-02T03:40:37.234Z,24.65
2023-02-02T03:43:05.446Z,37.40
2023-02-02T03:45:35.599Z,35.47
2023-02-02T03:48:07.084Z,30.88
2023-02-02T03:50:34.956Z,28.63
2023-02-02T03:53:02.963Z,44.15
2023-02-02T03:55:31.409Z,65.28
2023-02-02T03:58:02.205Z,38.92
2023-02-02T04:00:30.180Z,22.55
2023-02-02T04:02:59.903Z,61.53
2023-02-02T04:05:30.740Z,52.95
2023-02-02T04:07:58.846Z,48.67
2023-02-02T04:10:28.809Z,43.13
2023-02-02T04:12:56.940Z,34.65
2023-02-02T04:15:24.920Z,43.58
2023-02-02T04:17:53.203Z,23.08
2023-02-02T04:20:20.972Z,18.65
2023-02-02T04:22:48.905Z,19.23
2023-02-02T04:25:16.991Z,21.33
2023-02-02T04:27:44.818Z,28.45
2023-02-02T04:30:13.073Z,26.23
2023-02-02T04:32:40.913Z,20.05
2023-02-02T04:35:09.363Z,19.63
2023-02-02T04:37:37.269Z,31.83
2023-02-02T04:40:05.988Z,20.80
2023-02-02T04:42:35.221Z,19.73
2023-02-02T04:45:03.537Z,20.60
2023-02-02T04:47:31.458Z,24.88
2023-02-02T04:49:59.374Z,24.15
2023-02-02T04:52:27.303Z,34.58
2023-02-02T04:54:55.307Z,69.68
2023-02-02T04:57:23.299Z,96.93
2023-02-02T04:59:51.186Z,43.92
2023-02-02T05:02:19.828Z,47.10
2023-02-02T05:04:48.012Z,46.22
2023-02-02T05:07:15.844Z,63.00
2023-02-02T05:09:43.815Z,56.45
2023-02-02T05:12:12.023Z,59.47
2023-02-02T05:14:39.951Z,57.67
2023-02-02T05:17:07.878Z,52.00
2023-02-02T05:19:35.866Z,53.40
2023-02-02T05:22:03.896Z,45.85
2023-02-02T05:24:31.906Z,39.05
2023-02-02T05:27:00.948Z,46.90
2023-02-02T05:29:30.343Z,85.28
2023-02-02T05:31:58.722Z,139.05
2023-02-02T05:34:26.873Z,87.70
2023-02-02T05:36:55.241Z,94.22
2023-02-02T05:39:23.210Z,148.27
2023-02-02T05:41:51.121Z,188.77
2023-02-02T05:44:19.185Z,199.00
2023-02-02T05:46:47.022Z,124.90
2023-02-02T05:49:14.983Z,67.53
2023-02-02T05:51:48.987Z,104.93
2023-02-02T05:54:20.740Z,113.00
2023-02-02T05:56:52.724Z,106.57
2023-02-02T05:59:20.747Z,89.68
2023-02-02T06:01:49.494Z,120.32
2023-02-02T06:04:17.602Z,98.65
2023-02-02T06:06:45.951Z,71.68
2023-02-02T06:09:14.290Z,156.32
2023-02-02T06:11:43.967Z,91.95
2023-02-02T06:14:13.323Z,95.13
2023-02-02T06:16:41.671Z,87.57
2023-02-02T06:19:09.735Z,84.30
2023-02-02T06:21:37.651Z,121.20
2023-02-02T06:24:06.032Z,108.95
2023-02-02T06:26:33.882Z,98.28
2023-02-02T06:29:02.548Z,116.20
2023-02-02T06:31:30.620Z,152.95
2023-02-02T06:33:59.543Z,146.45
2023-02-02T06:36:28.220Z,107.97
2023-02-02T06:38:57.556Z,104.28
2023-02-02T06:41:26.234Z,110.18
2023-02-02T06:43:54.266Z,93.43
2023-02-02T06:46:22.105Z,103.70
2023-02-02T06:48:50.023Z,108.38
2023-02-02T06:51:18.098Z,74.43
2023-02-02T06:53:51.845Z,76.22
2023-02-02T06:56:19.718Z,72.07
2023-02-02T06:58:47.607Z,87.28
2023-02-02T07:01:15.845Z,98.78
2023-02-02T07:03:43.726Z,36.72
2023-02-02T07:06:19.907Z,32.70
2023-02-02T07:08:57.644Z,54.80
2023-02-02T07:11:37.238Z,36.22
2023-02-02T07:14:09.880Z,40.85
2023-02-02T07:16:37.845Z,31.17
2023-02-02T07:19:05.847Z,30.77
2023-02-02T07:21:36.525Z,30.98
2023-02-02T07:24:05.865Z,37.55
2023-02-02T07:29:04.792Z,46.58
2023-02-02T07:31:35.823Z,49.35
2023-02-02T07:34:04.849Z,36.75
2023-02-02T07:36:33.308Z,40.60
2023-02-02T07:39:04.126Z,48.40
2023-02-02T07:41:34.038Z,36.65
2023-02-02T07:44:02.418Z,37.30
2023-02-02T07:46:30.543Z,66.72
2023-02-02T07:48:58.633Z,60.08
2023-02-02T07:51:26.926Z,57.70
2023-02-02T07:53:55.899Z,61.67
2023-02-02T07:56:26.601Z,57.10
2023-02-02T07:58:56.690Z,37.92
2023-02-02T08:01:26.596Z,45.42
2023-02-02T08:03:56.500Z,34.35
2023-02-02T08:06:28.580Z,47.95
2023-02-02T08:08:56.994Z,43.55
2023-02-02T08:11:26.400Z,33.00
2023-02-02T08:13:59.157Z,25.70
2023-02-02T08:16:29.132Z,27.27
2023-02-02T08:19:07.192Z,44.67
2023-02-02T08:21:35.815Z,23.60
2023-02-02T08:24:05.377Z,20.65
2023-02-02T08:26:33.637Z,25.13
2023-02-02T08:29:05.919Z,13.35
2023-02-02T08:31:37.816Z,8.48
2023-02-02T08:34:06.073Z,10.48
2023-02-02T08:36:35.814Z,7.45
2023-02-02T08:39:11.252Z,11.25
2023-02-02T08:41:39.585Z,8.40
2023-02-02T08:44:11.340Z,10.90
2023-02-02T08:46:40.022Z,6.05
2023-02-02T08:49:13.377Z,9.48
2023-02-02T08:51:42.229Z,12.90
2023-02-02T08:54:10.112Z,9.88
2023-02-02T08:56:38.601Z,7.38
2023-02-02T08:59:06.622Z,9.40
2023-02-02T09:01:35.407Z,16.15
2023-02-02T09:04:09.253Z,7.45
2023-02-02T09:06:41.570Z,11.88
2023-02-02T09:09:13.637Z,8.80
2023-02-02T09:11:42.512Z,8.30
2023-02-02T09:16:39.366Z,9.45
2023-02-02T09:19:08.213Z,6.53
2023-02-02T09:21:37.535Z,5.97
2023-02-02T09:24:13.511Z,4.70
2023-02-02T09:26:42.577Z,5.80
2023-02-02T09:29:18.046Z,8.15
2023-02-02T09:31:47.169Z,6.70
2023-02-02T09:34:16.213Z,9.45
2023-02-02T09:36:44.842Z,25.92
2023-02-02T09:39:13.452Z,18.52
2023-02-02T09:41:56.169Z,8.88
2023-02-02T09:44:42.826Z,10.45
2023-02-02T09:47:17.332Z,9.98
2023-02-02T09:50:06.346Z,6.25
2023-02-02T09:52:40.929Z,7.72
2023-02-02T09:55:30.599Z,7.03
2023-02-02T09:58:28.987Z,7.70
2023-02-02T10:01:11.439Z,8.13
2023-02-02T10:04:01.953Z,6.80
2023-02-02T10:06:42.437Z,16.42
2023-02-02T10:09:24.405Z,6.65
2023-02-02T10:12:21.761Z,8.07
2023-02-02T10:15:13.491Z,7.90
2023-02-02T10:17:55.430Z,5.75
2023-02-02T10:20:45.833Z,10.27
2023-02-02T10:23:26.961Z,6.97
2023-02-02T10:25:56.866Z,6.90
2023-02-02T10:28:36.752Z,12.98
2023-02-02T10:31:06.215Z,11.13
2023-02-02T10:33:40.817Z,7.97
2023-02-02T10:36:22.254Z,8.13
2023-02-02T10:39:33.368Z,6.50
2023-02-02T10:42:16.917Z,9.30
2023-02-02T10:45:10.381Z,8.20
2023-02-02T10:47:38.978Z,9.98
2023-02-02T10:52:45.747Z,8.23
2023-02-02T10:55:24.528Z,7.80
2023-02-02T10:57:55.071Z,6.82
2023-02-02T11:00:25.925Z,6.22
2023-02-02T11:02:54.743Z,6.85
2023-02-02T11:08:16.427Z,6.38
2023-02-02T11:10:45.996Z,8.00
2023-02-02T11:13:31.233Z,6.93
2023-02-02T11:16:17.773Z,7.10
2023-02-02T11:18:46.684Z,5.90
2023-02-02T11:21:31.551Z,14.05
2023-02-02T11:24:03.891Z,6.30
2023-02-02T11:26:54.168Z,6.40
2023-02-02T11:29:29.850Z,5.95
2023-02-02T11:31:58.220Z,5.18
2023-02-02T11:34:28.087Z,9.82
2023-02-02T11:37:14.793Z,9.73
2023-02-02T11:39:44.435Z,4.22
2023-02-02T11:42:18.793Z,11.75
2023-02-02T11:45:15.485Z,6.40
2023-02-02T11:47:45.284Z,5.78
2023-02-02T11:50:31.581Z,5.70
2023-02-02T11:53:00.183Z,6.25
2023-02-02T11:55:30.800Z,7.10
2023-02-02T11:58:28.214Z,5.80
2023-02-02T12:01:02.141Z,5.55
2023-02-02T12:03:31.792Z,6.50
2023-02-02T12:06:02.581Z,6.90
2023-02-02T12:08:31.409Z,7.65
2023-02-02T12:11:00.458Z,7.47
2023-02-02T12:13:52.320Z,27.67
2023-02-02T12:16:27.888Z,8.23
2023-02-02T12:19:10.663Z,11.98
2023-02-02T12:22:04.730Z,11.52
2023-02-02T12:24:37.323Z,14.77
2023-02-02T12:27:12.141Z,7.10
2023-02-02T12:29:52.416Z,7.32
2023-02-02T12:32:26.132Z,9.63
2023-02-02T12:35:22.033Z,11.63
2023-02-02T12:38:08.111Z,12.10
2023-02-02T12:41:04.995Z,4.78
2023-02-02T12:43:56.009Z,13.50
2023-02-02T12:46:32.948Z,15.15
2023-02-02T12:49:24.954Z,9.00
2023-02-02T12:52:11.423Z,18.83
2023-02-02T12:54:57.385Z,19.13
2023-02-02T12:57:38.153Z,19.45
2023-02-02T13:00:12.157Z,8.05
2023-02-02T13:03:17.540Z,14.57
2023-02-02T13:06:09.943Z,9.80
2023-02-02T13:08:52.339Z,13.13
2023-02-02T13:11:35.601Z,7.22
2023-02-02T13:14:16.487Z,5.00
2023-02-02T13:16:49.570Z,4.63
2023-02-02T13:19:35.757Z,9.45
2023-02-02T13:22:07.230Z,12.30
2023-02-02T13:24:40.224Z,18.42
2023-02-02T13:27:13.810Z,9.88
2023-02-02T13:29:48.299Z,8.00
2023-02-02T13:32:32.361Z,7.45
2023-02-02T13:35:21.817Z,7.05
2023-02-02T13:38:05.293Z,5.63
2023-02-02T13:40:41.200Z,6.60
2023-02-02T13:43:16.529Z,3.15
2023-02-02T13:46:07.108Z,9.95
2023-02-02T13:49:02.417Z,10.77
2023-02-02T13:51:54.014Z,7.80
2023-02-02T13:54:44.888Z,4.80
2023-02-02T13:57:53.253Z,4.88
2023-02-02T14:00:25.646Z,6.63
2023-02-02T14:03:26.548Z,5.65
2023-02-02T14:06:25.781Z,4.78
2023-02-02T14:09:00.632Z,6.93
2023-02-02T14:11:32.831Z,9.75
2023-02-02T14:14:32.408Z,8.00
2023-02-02T14:17:08.245Z,8.50
2023-02-02T14:19:36.110Z,8.80
2023-02-02T14:22:05.613Z,154.00
2023-02-02T14:24:36.578Z,7.93
2023-02-02T14:27:44.805Z,10.57
2023-02-02T14:30:24.270Z,7.68
2023-02-02T14:32:52.557Z,9.15
2023-02-02T14:35:41.245Z,15.20
2023-02-02T14:38:22.291Z,11.25
2023-02-02T14:41:50.945Z,8.02
2023-02-02T14:44:19.535Z,6.00
2023-02-02T14:46:49.558Z,7.70
2023-02-02T14:49:21.899Z,7.10
2023-02-02T14:51:54.266Z,11.18
2023-02-02T14:54:26.792Z,10.48
2023-02-02T14:57:05.376Z,10.15
2023-02-02T14:59:39.541Z,19.92
2023-02-02T15:02:15.779Z,36.65
2023-02-02T15:04:48.067Z,20.83
2023-02-02T15:07:24.891Z,8.73
2023-02-02T15:09:56.930Z,10.25
2023-02-02T15:12:35.843Z,12.98
2023-02-02T15:15:14.406Z,15.05
2023-02-02T15:17:54.427Z,15.43
2023-02-02T15:20:47.863Z,7.95
2023-02-02T15:23:22.840Z,10.68
2023-02-02T15:26:04.574Z,6.88
2023-02-02T15:28:44.928Z,10.63
2023-02-02T15:31:35.668Z,7.43
2023-02-02T15:34:17.821Z,5.47
2023-02-02T15:36:48.789Z,5.63
2023-02-02T15:39:39.592Z,8.23
2023-02-02T15:42:39.736Z,7.47
2023-02-02T15:45:31.508Z,5.20
2023-02-02T15:48:09.527Z,4.07
2023-02-02T15:50:39.906Z,7.07
2023-02-02T15:53:19.236Z,11.80
2023-02-02T15:55:48.113Z,5.28
2023-02-02T15:58:32.639Z,5.25
2023-02-02T16:01:07.394Z,9.27
2023-02-02T16:03:43.827Z,13.38
2023-02-02T16:06:13.074Z,8.20
2023-02-02T16:08:42.349Z,7.82
2023-02-02T16:11:15.615Z,11.85
2023-02-02T16:14:05.670Z,4.10
2023-02-02T16:16:40.152Z,6.15
2023-02-02T16:19:21.575Z,27.95
2023-02-02T16:22:08.166Z,19.58
2023-02-02T16:24:48.194Z,9.18
2023-02-02T16:27:24.073Z,11.73
2023-02-02T16:29:53.238Z,6.78
2023-02-02T16:32:35.546Z,7.35
2023-02-02T16:35:27.993Z,6.85
2023-02-02T16:38:33.017Z,3.38
2023-02-02T16:41:07.550Z,11.88
2023-02-02T16:43:38.526Z,6.32
2023-02-02T16:46:07.710Z,11.02
2023-02-02T16:48:46.637Z,5.65
2023-02-02T16:51:18.022Z,6.25
2023-02-02T16:54:02.817Z,8.10
2023-02-02T16:56:34.412Z,12.65
2023-02-02T16:59:35.659Z,14.88
2023-02-02T17:02:27.117Z,10.77
2023-02-02T17:05:38.508Z,12.95
2023-02-02T17:08:08.343Z,8.52
2023-02-02T17:10:42.786Z,6.57
2023-02-02T17:13:32.891Z,9.10
2023-02-02T17:16:01.472Z,4.65
2023-02-02T17:18:29.903Z,7.50
2023-02-02T17:21:04.654Z,5.70
2023-02-02T17:23:36.637Z,8.35
2023-02-02T17:26:08.274Z,11.23
2023-02-02T17:28:41.835Z,7.18
2023-02-02T17:31:15.672Z,4.90
2023-02-02T17:33:44.450Z,5.10
2023-02-02T17:36:13.761Z,4.10
2023-02-02T17:38:42.229Z,5.78
2023-02-02T17:41:13.221Z,10.50
2023-02-02T17:43:43.127Z,5.28
2023-02-02T17:46:14.808Z,6.40
2023-02-02T17:48:43.387Z,7.03
2023-02-02T17:51:16.767Z,15.52
2023-02-02T17:53:46.834Z,10.38
2023-02-02T17:56:15.743Z,6.78
2023-02-02T17:58:44.092Z,12.77
2023-02-02T18:01:13.294Z,5.57
2023-02-02T18:03:46.071Z,16.83
2023-02-02T18:06:14.731Z,6.80
2023-02-02T18:08:43.262Z,8.23
2023-02-02T18:11:14.054Z,21.13
2023-02-02T18:13:44.620Z,5.40
2023-02-02T18:16:14.300Z,15.80
2023-02-02T18:18:43.148Z,16.20
2023-02-02T18:21:12.361Z,8.43
2023-02-02T18:23:41.595Z,6.15
2023-02-02T18:28:42.232Z,4.70
2023-02-02T18:31:14.057Z,5.95
2023-02-02T18:33:43.615Z,6.65
2023-02-02T18:36:15.811Z,8.85
2023-02-02T18:38:45.713Z,9.02
2023-02-02T18:41:16.381Z,5.70
2023-02-02T18:43:45.977Z,7.65
2023-02-02T18:46:15.947Z,9.10
2023-02-02T18:48:45.410Z,10.07
2023-02-02T18:51:16.919Z,11.50
2023-02-02T18:53:47.108Z,10.60
2023-02-02T18:56:18.568Z,11.30
2023-02-02T18:58:47.418Z,11.85
2023-02-02T19:01:18.629Z,9.70
2023-02-02T19:03:52.171Z,8.05
2023-02-02T19:06:40.033Z,11.07
2023-02-02T19:09:12.359Z,11.07
2023-02-02T19:11:44.317Z,11.93
2023-02-02T19:14:26.891Z,9.07
2023-02-02T19:17:00.337Z,9.93
2023-02-02T19:19:33.778Z,15.77
2023-02-02T19:22:08.174Z,17.00
2023-02-02T19:24:40.740Z,12.85
2023-02-02T19:27:18.573Z,18.02
2023-02-02T19:29:53.973Z,10.90
2023-02-02T19:32:25.409Z,8.52
2023-02-02T19:34:57.633Z,10.73
2023-02-02T19:37:32.337Z,5.32
2023-02-02T19:40:09.638Z,7.70
2023-02-02T19:42:44.139Z,13.07
2023-02-02T19:45:30.267Z,7.28
2023-02-02T19:48:13.412Z,7.05
2023-02-02T19:50:42.573Z,7.35
2023-02-02T19:53:20.657Z,6.70
2023-02-02T19:55:49.532Z,6.15
2023-02-02T19:58:26.812Z,8.15
2023-02-02T20:00:57.677Z,7.45
2023-02-02T20:03:43.441Z,6.20
2023-02-02T20:06:25.234Z,7.05
2023-02-02T20:08:54.148Z,7.03
2023-02-02T20:11:37.464Z,7.70
2023-02-02T20:14:32.571Z,4.93
2023-02-02T20:17:07.054Z,9.82
2023-02-02T20:19:40.742Z,8.93
2023-02-02T20:22:35.447Z,12.00
2023-02-02T20:25:07.354Z,15.15
2023-02-02T20:27:36.020Z,16.95
2023-02-02T20:30:28.585Z,21.73
2023-02-02T20:33:01.704Z,26.52
2023-02-02T20:35:42.266Z,26.88
2023-02-02T20:38:22.958Z,11.52
2023-02-02T20:40:52.361Z,7.47
2023-02-02T20:45:50.589Z,11.20
2023-02-02T20:48:19.595Z,18.45
2023-02-02T20:50:47.938Z,13.55
2023-02-02T20:53:16.925Z,19.48
2023-02-02T20:55:45.380Z,10.93
2023-02-02T20:58:13.960Z,7.65
2023-02-02T21:00:42.771Z,28.13
2023-02-02T21:03:13.563Z,29.33
2023-02-02T21:05:42.080Z,28.45
2023-02-02T21:08:10.498Z,21.45
2023-02-02T21:10:38.865Z,34.80
2023-02-02T21:13:07.058Z,37.85
2023-02-02T21:15:35.194Z,36.47
2023-02-02T21:18:03.131Z,20.42
2023-02-02T21:20:31.889Z,20.10
2023-02-02T21:23:01.888Z,16.60
2023-02-02T21:25:29.919Z,14.68
2023-02-02T21:28:00.403Z,14.30
2023-02-02T21:30:37.075Z,25.70
2023-02-02T21:33:06.040Z,15.43
2023-02-02T21:35:34.865Z,20.92
2023-02-02T21:38:13.240Z,15.07
2023-02-02T21:40:42.198Z,16.60
2023-02-02T21:43:18.620Z,41.60
2023-02-02T21:45:56.090Z,41.28
2023-02-02T21:48:33.116Z,56.65
2023-02-02T21:51:23.613Z,59.95
2023-02-02T21:53:52.392Z,42.25
2023-02-02T21:56:29.064Z,41.05
2023-02-02T21:59:00.761Z,61.75
2023-02-02T22:01:38.487Z,36.97
2023-02-02T22:04:25.843Z,15.88
2023-02-02T22:06:59.955Z,34.50
2023-02-02T22:09:39.827Z,32.78
2023-02-02T22:12:28.760Z,22.00
2023-02-02T22:15:05.158Z,16.02
2023-02-02T22:17:41.005Z,12.88
2023-02-02T22:20:30.313Z,11.63
2023-02-02T22:22:58.201Z,14.70
2023-02-02T22:25:35.580Z,12.75
2023-02-02T22:28:19.517Z,15.00
2023-02-02T22:30:49.112Z,12.43
2023-02-02T22:33:17.733Z,11.43
2023-02-02T22:35:46.660Z,13.15
2023-02-02T22:38:20.563Z,13.70
2023-02-02T22:40:49.829Z,15.07
2023-02-02T22:43:19.051Z,13.00
2023-02-02T22:45:48.014Z,10.95
2023-02-02T22:48:16.948Z,12.05
2023-02-02T22:50:45.156Z,13.40
2023-02-02T22:53:15.604Z,18.67
2023-02-02T22:55:43.715Z,12.80
2023-02-02T22:58:11.731Z,14.25
2023-02-02T23:00:40.028Z,9.18
2023-02-02T23:03:07.999Z,6.55
2023-02-02T23:05:35.971Z,7.47
2023-02-02T23:08:03.841Z,11.18
2023-02-02T23:10:35.711Z,7.82
2023-02-02T23:13:04.906Z,7.28
2023-02-02T23:15:33.638Z,7.68
2023-02-02T23:18:02.060Z,8.23
2023-02-02T23:20:30.055Z,11.48
2023-02-02T23:22:57.979Z,7.55
2023-02-02T23:25:26.035Z,10.93
2023-02-02T23:27:54.105Z,7.22
2023-02-02T23:30:24.815Z,8.98
2023-02-02T23:32:53.422Z,6.63
2023-02-02T23:35:21.383Z,6.93
2023-02-02T23:37:49.412Z,5.65
2023-02-02T23:40:17.513Z,5.80
2023-02-02T23:42:45.413Z,7.43
2023-02-02T23:45:16.116Z,5.32
2023-02-02T23:47:44.866Z,4.18
2023-02-02T23:50:13.303Z,5.93
2023-02-02T23:52:41.739Z,6.03
2023-02-02T23:55:10.342Z,6.15
2023-02-02T23:57:38.453Z,4.82
